createdAt,value
2022-11-22T00:01:37.080Z,4.08
2022-11-22T00:04:04.515Z,6.04
2022-11-22T00:06:31.003Z,7.14
2022-11-22T00:08:57.513Z,6.13
2022-11-22T00:11:23.900Z,5.08
2022-11-22T00:13:50.311Z,4.35
2022-11-22T00:16:16.849Z,3.81
2022-11-22T00:18:43.258Z,3.94
2022-11-22T00:21:09.656Z,5.94
2022-11-22T00:23:36.165Z,7.03
2022-11-22T00:26:02.770Z,6.01
2022-11-22T00:28:29.324Z,4.99
2022-11-22T00:30:55.745Z,4.29
2022-11-22T00:33:22.207Z,3.80
2022-11-22T00:35:48.724Z,4.38
2022-11-22T00:38:15.175Z,6.51
2022-11-22T00:40:42.502Z,6.90
2022-11-22T00:43:08.876Z,5.75
2022-11-22T00:45:35.280Z,4.78
2022-11-22T00:48:01.730Z,4.10
2022-11-22T00:50:28.230Z,4.10
2022-11-22T00:52:54.641Z,6.07
2022-11-22T00:55:21.053Z,6.37
2022-11-22T00:57:47.543Z,5.28
2022-11-22T01:00:14.734Z,4.41
2022-11-22T01:02:41.149Z,4.05
2022-11-22T01:05:08.129Z,5.75
2022-11-22T01:07:34.787Z,6.54
2022-11-22T01:10:01.360Z,5.52
2022-11-22T01:12:27.751Z,4.54
2022-11-22T01:14:54.202Z,3.89
2022-11-22T01:17:20.741Z,4.04
2022-11-22T01:19:47.362Z,6.08
2022-11-22T01:22:13.870Z,6.10
2022-11-22T01:24:40.235Z,5.01
2022-11-22T01:27:06.636Z,4.20
2022-11-22T01:29:33.301Z,4.11
2022-11-22T01:31:59.746Z,6.00
2022-11-22T01:34:26.374Z,7.25
2022-11-22T01:36:52.777Z,6.29
2022-11-22T01:39:19.224Z,5.25
2022-11-22T01:41:45.799Z,4.52
2022-11-22T01:44:30.329Z,4.00
2022-11-22T01:47:07.225Z,4.80
2022-11-22T01:49:45.842Z,7.02
2022-11-22T01:52:24.462Z,7.00
2022-11-22T01:54:56.901Z,5.75
2022-11-22T01:57:29.290Z,4.85
2022-11-22T02:00:01.943Z,4.24
2022-11-22T02:02:28.567Z,3.79
2022-11-22T02:04:57.494Z,4.14
2022-11-22T02:07:31.222Z,6.21
2022-11-22T02:09:57.644Z,6.77
2022-11-22T02:12:28.041Z,5.58
2022-11-22T02:14:54.801Z,4.64
2022-11-22T02:17:21.428Z,3.99
2022-11-22T02:19:50.077Z,3.56
2022-11-22T02:22:37.506Z,4.47
2022-11-22T02:25:19.541Z,6.98
2022-11-22T02:27:46.002Z,6.56
2022-11-22T02:30:13.026Z,5.35
2022-11-22T02:32:39.550Z,4.52
2022-11-22T02:35:18.442Z,3.94
2022-11-22T02:37:45.052Z,4.35
2022-11-22T02:40:14.540Z,6.32
2022-11-22T02:42:44.835Z,6.19
2022-11-22T02:45:11.216Z,5.12
2022-11-22T02:47:37.603Z,4.30
2022-11-22T02:50:04.921Z,3.75
2022-11-22T02:52:31.599Z,4.46
2022-11-22T02:54:58.018Z,6.50
2022-11-22T02:57:24.572Z,6.18
2022-11-22T02:59:51.004Z,5.06
2022-11-22T03:02:17.488Z,4.23
2022-11-22T03:04:44.246Z,4.44
2022-11-22T03:07:10.712Z,6.38
2022-11-22T03:09:37.434Z,6.39
2022-11-22T03:12:03.986Z,5.23
2022-11-22T03:14:30.509Z,4.35
2022-11-22T03:16:56.962Z,3.78
2022-11-22T03:19:23.404Z,4.31
2022-11-22T03:21:50.601Z,6.25
2022-11-22T03:24:18.776Z,6.41
2022-11-22T03:26:49.527Z,5.23
2022-11-22T03:29:18.937Z,4.33
2022-11-22T03:31:45.377Z,4.35
2022-11-22T03:34:12.738Z,6.22
2022-11-22T03:36:39.271Z,6.99
2022-11-22T03:39:06.122Z,5.84
2022-11-22T03:41:32.541Z,4.85
2022-11-22T03:43:58.983Z,4.19
2022-11-22T03:46:25.494Z,4.12
2022-11-22T03:48:51.910Z,5.97
2022-11-22T03:51:18.320Z,7.18
2022-11-22T03:53:44.768Z,6.14
2022-11-22T03:56:11.230Z,5.07
2022-11-22T03:58:37.656Z,4.34
2022-11-22T04:01:04.163Z,4.28
2022-11-22T04:03:30.675Z,6.13
2022-11-22T04:05:57.160Z,6.18
2022-11-22T04:08:23.636Z,5.14
2022-11-22T04:10:51.171Z,4.34
2022-11-22T04:13:18.759Z,3.97
2022-11-22T04:15:45.185Z,5.48
2022-11-22T04:18:13.148Z,6.95
2022-11-22T04:20:59.661Z,6.16
2022-11-22T04:23:32.275Z,5.00
2022-11-22T04:26:00.226Z,4.24
2022-11-22T04:28:47.092Z,4.26
2022-11-22T04:31:31.709Z,6.14
2022-11-22T04:33:58.135Z,5.55
2022-11-22T04:36:24.582Z,4.61
2022-11-22T04:38:51.554Z,3.98
2022-11-22T04:41:18.041Z,5.23
2022-11-22T04:44:03.417Z,6.36
2022-11-22T04:46:30.804Z,5.33
2022-11-22T04:48:57.193Z,4.46
2022-11-22T04:51:41.954Z,4.11
2022-11-22T04:54:08.405Z,5.94
2022-11-22T04:56:34.940Z,6.92
2022-11-22T04:59:01.371Z,5.89
2022-11-22T05:01:27.859Z,4.93
2022-11-22T05:03:54.377Z,4.23
2022-11-22T05:06:20.764Z,3.96
2022-11-22T05:08:47.140Z,5.55
2022-11-22T05:11:13.838Z,6.59
2022-11-22T05:13:41.619Z,5.66
2022-11-22T05:16:12.639Z,4.73
2022-11-22T05:18:39.632Z,4.09
2022-11-22T05:21:08.943Z,4.50
2022-11-22T05:23:54.225Z,6.20
2022-11-22T05:26:29.713Z,5.55
2022-11-22T05:28:59.082Z,4.55
2022-11-22T05:31:26.825Z,3.91
2022-11-22T05:33:55.725Z,4.20
2022-11-22T05:36:28.000Z,6.17
2022-11-22T05:38:54.641Z,7.16
2022-11-22T05:41:21.105Z,6.03
2022-11-22T05:43:47.643Z,4.94
2022-11-22T05:46:17.259Z,4.20
2022-11-22T05:48:48.234Z,5.14
2022-11-22T05:51:18.312Z,6.51
2022-11-22T05:53:45.299Z,5.70
2022-11-22T05:56:31.151Z,4.74
2022-11-22T05:58:57.689Z,4.11
2022-11-22T06:01:24.450Z,5.35
2022-11-22T06:03:51.711Z,6.89
2022-11-22T06:06:18.487Z,5.98
2022-11-22T06:08:49.023Z,4.81
2022-11-22T06:11:25.462Z,4.46
2022-11-22T06:13:59.734Z,6.21
2022-11-22T06:16:26.667Z,6.97
2022-11-22T06:18:53.705Z,5.86
2022-11-22T06:21:23.076Z,4.92
2022-11-22T06:23:53.564Z,4.40
2022-11-22T06:26:25.586Z,5.95
2022-11-22T06:28:54.000Z,6.99
2022-11-22T06:31:26.132Z,5.97
2022-11-22T06:33:54.872Z,4.90
2022-11-22T06:36:25.290Z,4.19
2022-11-22T06:38:52.447Z,5.12
2022-11-22T06:41:23.699Z,6.95
2022-11-22T06:43:51.580Z,6.82
2022-11-22T06:46:21.251Z,5.62
2022-11-22T06:48:48.611Z,4.71
2022-11-22T06:51:18.870Z,4.10
2022-11-22T06:53:48.228Z,4.87
2022-11-22T06:56:23.485Z,6.78
2022-11-22T06:58:51.265Z,6.55
2022-11-22T07:01:21.275Z,5.44
2022-11-22T07:03:48.483Z,4.58
2022-11-22T07:06:18.041Z,4.52
2022-11-22T07:08:45.756Z,6.35
2022-11-22T07:11:20.550Z,6.55
2022-11-22T07:13:48.273Z,5.34
2022-11-22T07:16:18.286Z,4.57
2022-11-22T07:18:45.177Z,6.03
2022-11-22T07:21:15.840Z,7.18
2022-11-22T07:23:44.618Z,6.15
2022-11-22T07:26:12.704Z,5.07
2022-11-22T07:28:39.673Z,4.60
2022-11-22T07:31:08.968Z,6.19
2022-11-22T07:33:35.900Z,7.35
2022-11-22T07:36:07.487Z,6.30
2022-11-22T07:38:35.003Z,5.23
2022-11-22T07:41:02.493Z,5.01
2022-11-22T07:43:29.575Z,6.79
2022-11-22T07:46:05.825Z,7.86
2022-11-22T07:48:33.015Z,6.70
2022-11-22T07:51:05.266Z,5.61
2022-11-22T07:53:32.523Z,4.91
2022-11-22T07:56:04.049Z,6.16
2022-11-22T07:58:31.103Z,7.63
2022-11-22T08:00:57.670Z,6.80
2022-11-22T08:03:28.943Z,5.64
2022-11-22T08:06:05.314Z,5.11
2022-11-22T08:08:32.660Z,6.73
2022-11-22T08:10:59.627Z,7.73
2022-11-22T08:13:26.894Z,6.53
2022-11-22T08:15:54.839Z,5.55
2022-11-22T08:18:24.275Z,5.02
2022-11-22T08:20:50.872Z,6.56
2022-11-22T08:23:18.203Z,6.99
2022-11-22T08:25:44.740Z,5.88
2022-11-22T08:28:11.853Z,5.17
2022-11-22T08:30:38.576Z,6.63
2022-11-22T08:33:05.224Z,7.56
2022-11-22T08:35:32.713Z,6.36
2022-11-22T08:38:01.840Z,5.49
2022-11-22T08:40:28.477Z,6.96
2022-11-22T08:42:55.966Z,6.94
2022-11-22T08:45:22.817Z,5.72
2022-11-22T08:47:49.404Z,6.02
2022-11-22T08:50:17.572Z,7.67
2022-11-22T08:52:44.173Z,6.89
2022-11-22T08:55:10.814Z,5.71
2022-11-22T08:57:37.330Z,6.90
2022-11-22T09:00:05.886Z,8.12
2022-11-22T09:02:32.814Z,7.09
2022-11-22T09:04:59.628Z,5.94
2022-11-22T09:10:15.803Z,7.75
2022-11-22T09:12:45.989Z,7.49
2022-11-22T09:15:13.593Z,6.32
2022-11-22T09:17:39.981Z,5.55
2022-11-22T09:20:08.046Z,6.48
2022-11-22T09:22:34.934Z,8.34
2022-11-22T09:25:02.297Z,7.76
2022-11-22T09:27:29.660Z,6.27
2022-11-22T09:29:56.402Z,6.37
2022-11-22T09:32:22.841Z,8.20
2022-11-22T09:34:49.559Z,7.88
2022-11-22T09:37:18.164Z,6.65
2022-11-22T09:39:48.663Z,6.17
2022-11-22T09:42:54.654Z,7.91
2022-11-22T09:45:55.583Z,8.38
2022-11-22T09:48:57.658Z,6.91
2022-11-22T09:51:31.362Z,6.48
2022-11-22T09:54:11.509Z,8.21
2022-11-22T09:56:39.071Z,7.48
2022-11-22T09:59:16.717Z,6.36
2022-11-22T10:01:54.632Z,6.99
2022-11-22T10:04:31.530Z,8.63
2022-11-22T10:07:01.451Z,7.66
2022-11-22T10:09:50.274Z,6.47
2022-11-22T10:12:22.642Z,7.40
2022-11-22T10:14:56.609Z,9.15
2022-11-22T10:18:04.115Z,8.46
2022-11-22T10:20:35.342Z,6.75
2022-11-22T10:23:02.536Z,7.21
2022-11-22T10:25:39.902Z,8.95
2022-11-22T10:28:24.239Z,8.28
2022-11-22T10:31:14.771Z,6.89
2022-11-22T10:34:23.335Z,6.77
2022-11-22T10:37:09.013Z,8.89
2022-11-22T10:39:49.075Z,7.97
2022-11-22T10:42:31.516Z,6.77
2022-11-22T10:45:18.560Z,6.79
2022-11-22T10:48:03.534Z,8.99
2022-11-22T10:51:07.637Z,8.23
2022-11-22T10:54:03.349Z,6.87
2022-11-22T10:56:44.551Z,8.28
2022-11-22T10:59:47.226Z,9.58
2022-11-22T11:02:53.916Z,8.11
2022-11-22T11:05:27.939Z,6.89
2022-11-22T11:08:09.190Z,7.81
2022-11-22T11:10:42.990Z,9.67
2022-11-22T11:13:29.514Z,8.87
2022-11-22T11:15:59.603Z,7.52
2022-11-22T11:18:56.750Z,7.19
2022-11-22T11:21:25.169Z,9.33
2022-11-22T11:23:54.449Z,8.99
2022-11-22T11:26:28.729Z,7.76
2022-11-22T11:29:18.351Z,7.19
2022-11-22T11:32:06.096Z,9.15
2022-11-22T11:34:33.416Z,9.58
2022-11-22T11:37:01.516Z,8.19
2022-11-22T11:39:31.597Z,7.44
2022-11-22T11:41:59.213Z,8.89
2022-11-22T11:44:37.143Z,9.26
2022-11-22T11:47:04.422Z,8.00
2022-11-22T11:49:33.932Z,7.24
2022-11-22T11:52:08.036Z,8.49
2022-11-22T11:54:37.386Z,9.81
2022-11-22T11:57:07.176Z,8.76
2022-11-22T11:59:39.809Z,7.63
2022-11-22T12:02:16.982Z,7.43
2022-11-22T12:04:53.743Z,9.31
2022-11-22T12:07:38.535Z,8.80
2022-11-22T12:10:51.829Z,7.67
2022-11-22T12:13:35.303Z,9.12
2022-11-22T12:16:26.274Z,9.30
2022-11-22T12:19:09.676Z,7.97
2022-11-22T12:21:54.195Z,7.66
2022-11-22T12:25:02.597Z,9.66
2022-11-22T12:27:26.686Z,9.65
2022-11-22T12:29:53.428Z,8.42
2022-11-22T12:32:28.953Z,7.49
2022-11-22T12:35:19.546Z,7.60
2022-11-22T12:38:03.165Z,9.85
2022-11-22T12:40:44.636Z,10.35
2022-11-22T12:43:37.093Z,8.86
2022-11-22T12:46:18.186Z,7.72
2022-11-22T12:49:02.613Z,7.77
2022-11-22T12:52:03.331Z,9.76
2022-11-22T12:54:37.195Z,8.75
2022-11-22T12:57:28.788Z,7.84
2022-11-22T13:00:14.255Z,9.41
2022-11-22T13:03:12.172Z,9.59
2022-11-22T13:05:49.225Z,8.11
2022-11-22T13:08:37.992Z,7.51
2022-11-22T13:11:31.861Z,9.28
2022-11-22T13:14:21.407Z,10.32
2022-11-22T13:16:50.718Z,9.00
2022-11-22T13:19:19.752Z,7.98
2022-11-22T13:21:52.436Z,7.80
2022-11-22T13:24:56.089Z,9.61
2022-11-22T13:27:40.489Z,10.44
2022-11-22T13:30:22.754Z,9.05
2022-11-22T13:32:53.305Z,7.97
2022-11-22T13:35:33.271Z,7.75
2022-11-22T13:38:14.769Z,9.59
2022-11-22T13:40:50.588Z,10.46
2022-11-22T13:43:22.247Z,9.25
2022-11-22T13:45:53.624Z,8.13
2022-11-22T13:48:38.791Z,7.96
2022-11-22T13:51:14.656Z,9.96
2022-11-22T13:53:46.378Z,9.79
2022-11-22T13:56:15.920Z,8.50
2022-11-22T13:59:03.924Z,7.78
2022-11-22T14:01:33.447Z,9.34
2022-11-22T14:04:15.365Z,10.37
2022-11-22T14:07:10.782Z,9.13
2022-11-22T14:10:04.842Z,7.96
2022-11-22T14:13:08.554Z,9.06
2022-11-22T14:15:50.555Z,9.55
2022-11-22T14:18:52.322Z,8.25
2022-11-22T14:21:43.972Z,8.01
2022-11-22T14:24:51.438Z,9.78
2022-11-22T14:27:43.087Z,8.85
2022-11-22T14:30:22.643Z,7.72
2022-11-22T14:33:03.149Z,8.59
2022-11-22T14:36:10.860Z,10.32
2022-11-22T14:38:42.905Z,9.28
2022-11-22T14:41:28.970Z,8.12
2022-11-22T14:44:24.529Z,8.89
2022-11-22T14:47:11.963Z,9.95
2022-11-22T14:49:46.253Z,8.70
2022-11-22T14:52:26.371Z,7.95
2022-11-22T14:55:05.443Z,9.45
2022-11-22T14:57:38.242Z,10.37
2022-11-22T15:00:23.275Z,9.22
2022-11-22T15:03:15.694Z,8.09
2022-11-22T15:09:18.784Z,8.88
2022-11-22T15:09:48.845Z,10.61
2022-11-22T15:12:54.081Z,9.14
2022-11-22T15:57:36.688Z,9.17
2022-11-22T16:00:20.340Z,8.14
2022-11-22T16:02:58.256Z,8.66
2022-11-22T16:06:09.336Z,10.79
2022-11-22T16:08:21.504Z,9.87
2022-11-22T16:10:50.775Z,8.64
2022-11-22T16:13:30.197Z,8.04
2022-11-22T16:16:18.398Z,9.83
2022-11-22T16:18:49.221Z,10.34
2022-11-22T16:21:17.026Z,9.01
2022-11-22T16:23:47.111Z,8.14
2022-11-22T16:26:29.123Z,9.70
2022-11-22T16:29:25.603Z,10.72
2022-11-22T16:32:10.927Z,9.34
2022-11-22T16:34:41.748Z,8.19
2022-11-22T16:37:34.496Z,8.12
2022-11-22T16:40:06.268Z,10.55
2022-11-22T16:42:37.657Z,10.70
2022-11-22T16:45:14.654Z,9.28
2022-11-22T16:47:41.333Z,8.24
2022-11-22T16:50:13.812Z,8.26
2022-11-22T16:52:44.993Z,10.28
2022-11-22T16:55:19.270Z,10.05
2022-11-22T16:57:46.537Z,8.80
2022-11-22T17:00:13.889Z,7.91
2022-11-22T17:02:41.970Z,7.95
2022-11-22T17:05:15.798Z,9.89
2022-11-22T17:07:42.422Z,10.18
2022-11-22T17:10:12.978Z,8.97
2022-11-22T17:12:39.424Z,8.00
2022-11-22T17:15:10.670Z,8.72
2022-11-22T17:17:37.359Z,10.85
2022-11-22T17:20:07.503Z,10.48
2022-11-22T17:22:34.304Z,9.11
2022-11-22T17:25:00.893Z,8.08
2022-11-22T17:27:27.332Z,7.99
2022-11-22T17:29:54.076Z,9.93
2022-11-22T17:32:21.721Z,9.95
2022-11-22T17:34:49.908Z,8.78
2022-11-22T17:37:18.305Z,8.16
2022-11-22T17:39:50.750Z,9.86
2022-11-22T17:42:19.805Z,10.08
2022-11-22T17:44:46.493Z,8.77
2022-11-22T17:47:13.305Z,8.22
2022-11-22T17:49:42.757Z,9.95
2022-11-22T17:52:12.730Z,10.05
2022-11-22T17:54:42.006Z,8.81
2022-11-22T17:57:09.384Z,8.34
2022-11-22T17:59:44.531Z,10.17
2022-11-22T18:02:25.551Z,10.79
2022-11-22T18:04:54.233Z,9.41
2022-11-22T18:07:23.623Z,8.32
2022-11-22T18:10:05.868Z,8.29
2022-11-22T18:12:58.781Z,10.60
2022-11-22T18:15:33.209Z,10.57
2022-11-22T18:18:00.099Z,9.21
2022-11-22T18:20:26.732Z,8.25
2022-11-22T18:22:57.896Z,9.34
2022-11-22T18:25:24.406Z,10.68
2022-11-22T18:27:50.838Z,9.66
2022-11-22T18:30:17.652Z,8.54
2022-11-22T18:32:44.208Z,8.25
2022-11-22T18:35:10.705Z,9.98
2022-11-22T18:37:37.192Z,10.39
2022-11-22T18:40:04.768Z,9.18
2022-11-22T18:42:31.719Z,8.15
2022-11-22T18:44:58.412Z,8.57
2022-11-22T18:47:25.029Z,10.26
2022-11-22T18:49:51.576Z,9.73
2022-11-22T18:52:19.185Z,8.55
2022-11-22T18:54:45.985Z,8.32
2022-11-22T18:57:13.729Z,9.99
2022-11-22T18:59:40.632Z,9.75
2022-11-22T19:02:07.157Z,8.60
2022-11-22T19:04:33.876Z,8.22
2022-11-22T19:07:00.695Z,9.80
2022-11-22T19:09:27.107Z,10.61
2022-11-22T19:11:58.295Z,9.43
2022-11-22T19:14:28.166Z,8.31
2022-11-22T19:16:55.126Z,8.32
2022-11-22T19:19:23.672Z,10.05
2022-11-22T19:21:50.236Z,9.67
2022-11-22T19:24:16.953Z,8.50
2022-11-22T19:26:43.684Z,8.16
2022-11-22T19:29:10.271Z,9.78
2022-11-22T19:31:37.187Z,10.86
2022-11-22T19:34:03.933Z,9.83
2022-11-22T19:36:33.715Z,8.68
2022-11-22T19:39:08.785Z,8.10
2022-11-22T19:41:35.865Z,9.52
2022-11-22T19:44:11.745Z,10.67
2022-11-22T19:46:40.798Z,9.64
2022-11-22T19:49:08.666Z,8.55
2022-11-22T19:51:36.331Z,8.11
2022-11-22T19:54:03.581Z,9.55
2022-11-22T19:56:33.785Z,10.69
2022-11-22T19:59:03.705Z,9.69
2022-11-22T20:01:35.607Z,8.55
2022-11-22T20:04:05.483Z,8.21
2022-11-22T20:06:34.361Z,9.79
2022-11-22T20:09:10.383Z,10.89
2022-11-22T20:11:42.860Z,9.80
2022-11-22T20:14:10.013Z,8.64
2022-11-22T20:16:40.576Z,8.26
2022-11-22T20:19:08.988Z,9.85
2022-11-22T20:21:37.305Z,10.83
2022-11-22T20:24:05.330Z,9.74
2022-11-22T20:26:33.327Z,8.65
2022-11-22T20:29:07.263Z,7.92
2022-11-22T20:31:36.580Z,8.93
2022-11-22T20:34:04.485Z,10.69
2022-11-22T20:36:34.426Z,10.63
2022-11-22T20:39:06.771Z,9.32
2022-11-22T20:41:38.420Z,8.41
2022-11-22T20:44:05.823Z,9.36
2022-11-22T20:46:36.311Z,10.65
2022-11-22T20:49:03.142Z,9.70
2022-11-22T20:51:30.019Z,8.62
2022-11-22T20:53:57.428Z,8.39
2022-11-22T20:56:26.168Z,10.04
2022-11-22T20:58:53.436Z,10.93
2022-11-22T21:01:23.965Z,9.86
2022-11-22T21:03:52.466Z,8.73
2022-11-22T21:06:21.188Z,7.99
2022-11-22T21:08:48.772Z,8.91
2022-11-22T21:11:26.893Z,10.68
2022-11-22T21:13:57.703Z,9.99
2022-11-22T21:16:29.185Z,8.82
2022-11-22T21:19:01.476Z,8.11
2022-11-22T21:21:29.672Z,9.54
2022-11-22T21:23:59.457Z,10.50
2022-11-22T21:26:26.716Z,9.49
2022-11-22T21:28:55.107Z,8.43
2022-11-22T21:31:22.826Z,8.38
2022-11-22T21:33:53.388Z,10.17
2022-11-22T21:36:27.634Z,10.85
2022-11-22T21:38:54.335Z,9.61
2022-11-22T21:41:39.322Z,8.56
2022-11-22T21:44:12.288Z,9.19
2022-11-22T21:46:40.491Z,10.91
2022-11-22T21:49:07.017Z,10.54
2022-11-22T21:51:33.613Z,9.31
2022-11-22T21:54:01.446Z,8.45
2022-11-22T21:56:28.795Z,9.27
2022-11-22T21:58:55.776Z,10.95
2022-11-22T22:01:23.162Z,10.64
2022-11-22T22:03:49.852Z,9.42
2022-11-22T22:06:16.584Z,8.49
2022-11-22T22:08:42.996Z,8.31
2022-11-22T22:11:09.685Z,10.02
2022-11-22T22:13:36.174Z,11.05
2022-11-22T22:16:05.991Z,10.00
2022-11-22T22:18:37.762Z,8.90
2022-11-22T22:21:08.987Z,8.09
2022-11-22T22:23:38.738Z,8.50
2022-11-22T22:26:15.510Z,10.36
2022-11-22T22:28:43.573Z,11.17
2022-11-22T22:31:21.725Z,9.99
2022-11-22T22:33:56.544Z,8.84
2022-11-22T22:36:25.345Z,8.07
2022-11-22T22:38:53.183Z,8.79
2022-11-22T22:41:19.770Z,10.68
2022-11-22T22:43:48.399Z,11.29
2022-11-22T22:46:21.664Z,10.07
2022-11-22T22:48:49.163Z,8.97
2022-11-22T22:51:30.667Z,8.55
2022-11-22T22:53:58.896Z,10.28
2022-11-22T22:56:27.585Z,11.58
2022-11-22T22:58:55.450Z,10.73
2022-11-22T23:01:25.209Z,9.48
2022-11-22T23:03:54.245Z,8.62
2022-11-22T23:06:21.811Z,9.37
2022-11-22T23:08:50.045Z,11.02
2022-11-22T23:11:22.256Z,10.66
2022-11-22T23:13:48.685Z,9.46
2022-11-22T23:16:15.120Z,8.54
2022-11-22T23:18:43.961Z,8.44
2022-11-22T23:21:13.606Z,10.15
2022-11-22T23:23:40.163Z,11.23
2022-11-22T23:26:10.447Z,10.22
2022-11-22T23:28:37.444Z,9.05
2022-11-22T23:31:09.479Z,8.28
2022-11-22T23:33:36.403Z,9.14
2022-11-22T23:36:09.303Z,10.92
2022-11-22T23:38:36.234Z,10.97
2022-11-22T23:41:03.157Z,9.69
2022-11-22T23:43:30.244Z,8.73
2022-11-22T23:45:58.100Z,8.44
2022-11-22T23:48:26.135Z,10.08
2022-11-22T23:50:52.635Z,11.14
2022-11-22T23:53:19.563Z,10.13
2022-11-22T23:55:45.956Z,9.04
2022-11-22T23:58:12.367Z,8.32
